KSEP/SEP METAR and TAF weather

Enter ICAO airport designator
Station Type Date Time Source
KSEP METAR 2022/01/29 10:15 UTC NOAA

KSEP 291015Z AUTO 00000KT 10SM CLR M01/M06 A3039 RMK AO2 T10121056


Station Type Date Time Source
KSEP Decoded METAR 2022/01/29 10:15 UTC NOAA

Stephenville, Clark Field Municipal Airport, TX, United States (KSEP) 32-13N 098-11W 402M
Jan 29, 2022 - 05:15 AM EST / 2022.01.29 1015 UTC
Wind: Calm:0
Visibility: 10 mile(s):0
Sky conditions: clear
Temperature: 29.8 F (-1.2 C)
Dew Point: 21.9 F (-5.6 C)
Relative Humidity: 71%
Pressure (altimeter): 30.39 in. Hg (1029 hPa)
ob: KSEP 291015Z AUTO 00000KT 10SM CLR M01/M06 A3039 RMK AO2 T10121056
cycle: 10

Station Type Date Time Source
KSEP TAF UTC NOAA

Error!

Example: see airport list